Time;durP1;ratioP1;P1;durP2;ratioP2;P2;SDS_P1;SDS_P2;PMS_P1;PMS_P2;Temp;Humidity;BMP_temperature;BMP_pressure;BME280_temperature;BME280_humidity;BME280_pressure;Samples;Min_cycle;Max_cycle;Signal;HPM_P1;HPM_P2
2021/08/23 00:00:52;;;;;;;11.27;9.25;;;;;;;;;;5015271;28;20590;-83
2021/08/23 00:03:18;;;;;;;14.68;9.65;;;;;;;;;;5031556;28;20060;-83
2021/08/23 00:05:43;;;;;;;12.82;9.38;;;;;;;;;;5011889;28;20030;-82
2021/08/23 00:08:09;;;;;;;13.38;10.27;;;;;;;;;;5025337;28;20025;-82
2021/08/23 00:10:34;;;;;;;14.32;10.05;;;;;;;;;;5014948;28;20048;-83
2021/08/23 00:13:00;;;;;;;11.10;9.88;;;;;;;;;;5015182;28;20029;-83
2021/08/23 00:15:25;;;;;;;10.45;9.35;;;;;;;;;;5033101;28;20104;-83
2021/08/23 00:17:51;;;;;;;11.13;9.75;;;;;;;;;;5019246;28;20505;-83
2021/08/23 00:20:17;;;;;;;12.23;10.57;;;;;;;;;;5015887;28;20026;-83
2021/08/23 00:22:51;;;;;;;11.98;9.93;;;;;;;;;;5001874;28;20033;-83
2021/08/23 00:25:18;;;;;;;9.85;8.85;;;;;;;;;;5020020;28;20029;-83
2021/08/23 00:27:44;;;;;;;9.13;8.23;;;;;;;;;;5035131;28;20034;-83
2021/08/23 00:30:12;;;;;;;10.88;9.25;;;;;;;;;;5018884;28;20017;-83
2021/08/23 00:32:38;;;;;;;11.57;9.63;;;;;;;;;;5035158;28;20029;-83
2021/08/23 00:35:04;;;;;;;12.10;10.55;;;;;;;;;;5035268;28;20040;-83
2021/08/23 00:37:29;;;;;;;12.00;9.95;;;;;;;;;;5018573;28;20504;-83
2021/08/23 00:39:54;;;;;;;13.80;11.60;;;;;;;;;;5015402;28;20038;-83
2021/08/23 00:42:20;;;;;;;13.25;10.02;;;;;;;;;;5031070;28;20093;-83
2021/08/23 00:44:45;;;;;;;13.25;10.65;;;;;;;;;;5034995;28;20037;-83
2021/08/23 00:47:11;;;;;;;11.55;10.10;;;;;;;;;;5034917;28;20427;-83
2021/08/23 00:49:37;;;;;;;12.43;10.65;;;;;;;;;;5036119;28;20048;-83
2021/08/23 00:52:05;;;;;;;12.38;10.80;;;;;;;;;;5034848;28;20017;-83
2021/08/23 00:54:31;;;;;;;14.43;10.30;;;;;;;;;;5034838;28;20072;-83
2021/08/23 00:56:57;;;;;;;12.70;11.05;;;;;;;;;;5034710;28;20037;-82
2021/08/23 00:59:24;;;;;;;12.73;11.32;;;;;;;;;;5035763;28;20036;-83
2021/08/23 01:02:14;;;;;;;14.27;10.27;;;;;;;;;;5034747;28;20067;-83
2021/08/23 01:04:45;;;;;;;11.32;9.68;;;;;;;;;;5031511;28;20056;-83
2021/08/23 01:07:14;;;;;;;10.77;9.68;;;;;;;;;;5029131;28;20029;-83
2021/08/23 01:09:42;;;;;;;15.38;10.05;;;;;;;;;;5030950;28;20022;-83
2021/08/23 01:12:11;;;;;;;12.40;10.07;;;;;;;;;;5030637;28;20104;-83
2021/08/23 01:14:37;;;;;;;11.43;10.23;;;;;;;;;;5034477;28;20030;-83
2021/08/23 01:17:06;;;;;;;11.38;10.15;;;;;;;;;;5017680;28;20088;-83
2021/08/23 01:19:32;;;;;;;11.23;10.00;;;;;;;;;;5017929;28;20469;-83
2021/08/23 01:22:02;;;;;;;13.00;11.13;;;;;;;;;;5034624;28;20591;-83
2021/08/23 01:24:35;;;;;;;12.02;9.82;;;;;;;;;;5020093;28;20074;-83
2021/08/23 01:27:03;;;;;;;11.93;9.98;;;;;;;;;;5034917;28;20044;-83
2021/08/23 01:29:36;;;;;;;14.82;9.82;;;;;;;;;;5022995;28;20473;-83
2021/08/23 01:32:23;;;;;;;12.02;9.48;;;;;;;;;;5034462;28;20487;-83
2021/08/23 01:34:50;;;;;;;13.85;10.15;;;;;;;;;;5017667;28;20117;-82
2021/08/23 01:37:16;;;;;;;14.00;11.07;;;;;;;;;;5017659;28;20040;-82
2021/08/23 01:39:42;;;;;;;13.73;10.82;;;;;;;;;;5017680;28;20032;-83
2021/08/23 01:42:08;;;;;;;14.05;10.82;;;;;;;;;;5033967;28;20420;-83
2021/08/23 01:44:33;;;;;;;14.50;11.82;;;;;;;;;;5033705;28;20405;-83
2021/08/23 01:46:59;;;;;;;16.70;13.07;;;;;;;;;;5033882;28;20116;-83
2021/08/23 01:49:25;;;;;;;14.40;12.20;;;;;;;;;;5034751;28;20021;-83
2021/08/23 01:51:51;;;;;;;17.67;13.27;;;;;;;;;;5033835;28;20442;-82
2021/08/23 01:54:18;;;;;;;16.52;14.60;;;;;;;;;;5034796;28;20075;-83
2021/08/23 01:56:44;;;;;;;14.43;12.77;;;;;;;;;;5017511;28;20087;-83
2021/08/23 01:59:09;;;;;;;17.15;14.00;;;;;;;;;;5016987;28;20025;-82
2021/08/23 02:01:34;;;;;;;13.80;12.30;;;;;;;;;;5034826;28;20444;-82
2021/08/23 02:04:00;;;;;;;16.33;13.07;;;;;;;;;;5033470;28;20025;-83
2021/08/23 02:06:25;;;;;;;16.35;13.20;;;;;;;;;;5033503;28;20033;-83
2021/08/23 02:08:52;;;;;;;15.60;12.75;;;;;;;;;;5016655;28;20029;-82
2021/08/23 02:11:18;;;;;;;15.57;12.68;;;;;;;;;;5033327;28;20033;-82
2021/08/23 02:13:43;;;;;;;14.85;12.60;;;;;;;;;;5020868;28;20037;-82
2021/08/23 02:16:09;;;;;;;17.15;12.50;;;;;;;;;;5016506;28;20458;-82
2021/08/23 02:18:34;;;;;;;13.88;12.48;;;;;;;;;;5033310;28;20029;-83
2021/08/23 02:21:00;;;;;;;14.82;12.27;;;;;;;;;;5016666;28;20378;-82
2021/08/23 02:23:25;;;;;;;14.35;12.85;;;;;;;;;;5033204;28;20037;-82
2021/08/23 02:25:52;;;;;;;14.00;12.00;;;;;;;;;;5016670;28;20033;-82
2021/08/23 02:28:17;;;;;;;13.73;11.98;;;;;;;;;;5033033;28;20017;-83
2021/08/23 02:30:43;;;;;;;16.27;12.52;;;;;;;;;;4999954;28;20029;-82
2021/08/23 02:33:08;;;;;;;19.67;13.07;;;;;;;;;;5034175;28;20029;-83
2021/08/23 02:35:33;;;;;;;16.05;12.63;;;;;;;;;;4996806;28;20092;-83
2021/08/23 02:37:59;;;;;;;17.65;13.45;;;;;;;;;;5026976;28;20449;-82
2021/08/23 02:40:24;;;;;;;18.73;14.25;;;;;;;;;;5034012;28;20021;-82
2021/08/23 02:42:50;;;;;;;19.90;14.60;;;;;;;;;;5016206;28;20033;-82
2021/08/23 02:45:15;;;;;;;21.13;14.32;;;;;;;;;;4997018;28;20037;-83
2021/08/23 02:47:41;;;;;;;20.35;16.33;;;;;;;;;;5033006;28;20036;-83
2021/08/23 02:50:09;;;;;;;23.45;15.70;;;;;;;;;;5032650;28;20021;-83
2021/08/23 02:52:35;;;;;;;23.60;16.15;;;;;;;;;;5016363;28;20393;-83
2021/08/23 02:55:03;;;;;;;24.45;17.02;;;;;;;;;;5032558;28;20029;-83
2021/08/23 02:57:28;;;;;;;27.40;16.67;;;;;;;;;;5032451;28;20025;-83
2021/08/23 02:59:54;;;;;;;25.05;17.08;;;;;;;;;;5033638;28;20025;-83
2021/08/23 03:02:19;;;;;;;25.20;18.48;;;;;;;;;;5032381;28;20045;-83
2021/08/23 03:04:44;;;;;;;26.08;17.55;;;;;;;;;;5016183;28;20496;-83
2021/08/23 03:07:10;;;;;;;24.48;16.88;;;;;;;;;;5032572;28;20043;-83
2021/08/23 03:09:35;;;;;;;26.52;18.27;;;;;;;;;;5031820;28;20021;-83
2021/08/23 03:12:01;;;;;;;26.13;17.25;;;;;;;;;;5020359;28;20032;-83
2021/08/23 03:14:26;;;;;;;24.42;17.67;;;;;;;;;;5015954;28;20030;-83
2021/08/23 03:16:52;;;;;;;22.40;16.67;;;;;;;;;;5033295;28;20512;-83
2021/08/23 03:19:17;;;;;;;24.45;16.60;;;;;;;;;;4995980;28;20022;-83
2021/08/23 03:21:42;;;;;;;21.75;16.50;;;;;;;;;;5009990;28;20022;-83
2021/08/23 03:24:08;;;;;;;24.40;16.48;;;;;;;;;;5032226;28;20080;-83
2021/08/23 03:26:34;;;;;;;24.73;16.50;;;;;;;;;;5015402;28;20072;-83
2021/08/23 03:28:59;;;;;;;24.05;15.70;;;;;;;;;;4996037;28;20033;-83
2021/08/23 03:31:24;;;;;;;25.67;15.88;;;;;;;;;;5031934;28;20060;-83
2021/08/23 03:33:50;;;;;;;23.08;15.65;;;;;;;;;;5015409;28;20030;-83
2021/08/23 03:36:15;;;;;;;21.45;14.13;;;;;;;;;;5031707;28;20525;-83
2021/08/23 03:38:42;;;;;;;20.90;14.30;;;;;;;;;;4999304;28;20029;-83
2021/08/23 03:41:10;;;;;;;17.15;12.57;;;;;;;;;;5026863;28;20022;-83
2021/08/23 03:43:35;;;;;;;18.73;12.48;;;;;;;;;;5031732;28;20036;-83
2021/08/23 03:46:01;;;;;;;17.88;12.73;;;;;;;;;;5015386;28;20469;-83
2021/08/23 03:48:26;;;;;;;17.10;13.35;;;;;;;;;;5015027;28;20469;-83
2021/08/23 03:50:52;;;;;;;16.90;13.35;;;;;;;;;;5015193;28;20033;-83
2021/08/23 03:53:17;;;;;;;17.23;12.85;;;;;;;;;;5033088;28;20029;-83
2021/08/23 03:55:42;;;;;;;18.50;13.10;;;;;;;;;;5015079;28;20036;-82
2021/08/23 03:58:08;;;;;;;17.92;13.10;;;;;;;;;;5015338;28;20389;-82
2021/08/23 04:00:33;;;;;;;19.83;13.82;;;;;;;;;;5015249;28;20115;-82
2021/08/23 04:02:58;;;;;;;15.80;12.77;;;;;;;;;;5031643;28;20724;-82
2021/08/23 04:05:24;;;;;;;16.45;12.63;;;;;;;;;;5032886;28;20030;-82
2021/08/23 04:07:49;;;;;;;19.50;13.30;;;;;;;;;;5031553;28;20038;-82
2021/08/23 04:10:15;;;;;;;18.52;13.30;;;;;;;;;;5036258;28;20021;-82
2021/08/23 04:12:40;;;;;;;17.23;13.57;;;;;;;;;;5021607;28;20029;-82
2021/08/23 04:15:06;;;;;;;18.42;13.82;;;;;;;;;;5031302;28;20124;-82
2021/08/23 04:17:32;;;;;;;18.63;14.18;;;;;;;;;;5031452;28;20064;-82
2021/08/23 04:20:00;;;;;;;21.63;14.40;;;;;;;;;;5032697;28;20026;-82
2021/08/23 04:22:25;;;;;;;21.70;13.93;;;;;;;;;;5031316;28;20473;-82
2021/08/23 04:24:50;;;;;;;20.63;14.95;;;;;;;;;;5031645;28;20036;-82
2021/08/23 04:27:16;;;;;;;20.73;15.18;;;;;;;;;;5015181;28;20025;-82
2021/08/23 04:29:41;;;;;;;24.90;16.13;;;;;;;;;;4998500;28;20120;-82
2021/08/23 04:32:07;;;;;;;21.27;15.55;;;;;;;;;;5031415;28;20036;-82
2021/08/23 04:34:32;;;;;;;23.25;15.27;;;;;;;;;;5015004;28;20033;-82
2021/08/23 04:37:03;;;;;;;23.38;15.23;;;;;;;;;;5031309;28;20440;-82
2021/08/23 04:39:28;;;;;;;24.40;16.55;;;;;;;;;;5002694;28;20014;-82
2021/08/23 04:41:54;;;;;;;23.35;16.02;;;;;;;;;;5014718;28;20503;-82
2021/08/23 04:44:19;;;;;;;22.42;15.90;;;;;;;;;;5031427;28;20037;-82
2021/08/23 04:46:47;;;;;;;28.13;17.10;;;;;;;;;;4995310;28;20037;-82
2021/08/23 04:49:12;;;;;;;26.23;16.90;;;;;;;;;;5031176;28;20049;-82
2021/08/23 04:51:38;;;;;;;31.63;16.50;;;;;;;;;;5014784;28;20060;-82
2021/08/23 04:54:03;;;;;;;26.30;17.15;;;;;;;;;;5014870;28;20511;-82
2021/08/23 04:56:28;;;;;;;25.27;16.70;;;;;;;;;;5031135;28;20059;-82
2021/08/23 04:58:54;;;;;;;24.45;16.30;;;;;;;;;;5014758;28;20386;-82
2021/08/23 05:01:19;;;;;;;24.70;16.27;;;;;;;;;;5015890;28;20029;-83
2021/08/23 05:03:45;;;;;;;20.70;14.95;;;;;;;;;;5018382;28;20336;-83
2021/08/23 05:06:10;;;;;;;20.52;14.57;;;;;;;;;;5034610;28;20037;-82
2021/08/23 05:08:35;;;;;;;20.25;15.10;;;;;;;;;;5018731;28;20029;-82
2021/08/23 05:11:01;;;;;;;21.38;14.95;;;;;;;;;;5034958;28;20030;-83
2021/08/23 05:13:26;;;;;;;21.15;14.75;;;;;;;;;;5034437;28;20017;-82
2021/08/23 05:15:52;;;;;;;21.08;14.60;;;;;;;;;;5034167;28;20037;-82
2021/08/23 05:18:17;;;;;;;18.95;13.65;;;;;;;;;;5018348;28;20021;-82
2021/08/23 05:20:43;;;;;;;17.60;13.27;;;;;;;;;;5017699;28;20241;-82
2021/08/23 05:23:08;;;;;;;21.23;13.40;;;;;;;;;;5018055;28;20040;-82
2021/08/23 05:25:34;;;;;;;16.52;13.05;;;;;;;;;;5017732;28;20088;-82
2021/08/23 05:28:09;;;;;;;19.13;13.10;;;;;;;;;;5017761;28;20037;-82
2021/08/23 05:30:34;;;;;;;16.58;11.85;;;;;;;;;;5035803;28;20072;-82
2021/08/23 05:33:00;;;;;;;17.42;12.43;;;;;;;;;;5001267;28;20442;-82
2021/08/23 05:35:26;;;;;;;19.42;12.57;;;;;;;;;;5033917;28;20026;-82
2021/08/23 05:37:52;;;;;;;16.05;11.68;;;;;;;;;;5035314;28;20381;-82
2021/08/23 05:40:19;;;;;;;17.77;12.25;;;;;;;;;;5033935;28;20104;-82
2021/08/23 05:42:45;;;;;;;16.42;11.57;;;;;;;;;;5033887;28;20032;-82
2021/08/23 05:45:11;;;;;;;15.55;11.80;;;;;;;;;;5033967;28;20029;-82
2021/08/23 05:47:37;;;;;;;15.07;11.48;;;;;;;;;;5035277;28;20068;-82
2021/08/23 05:50:04;;;;;;;16.88;11.18;;;;;;;;;;5033724;28;20028;-82
2021/08/23 05:52:30;;;;;;;14.65;11.27;;;;;;;;;;5033768;28;20084;-82
2021/08/23 05:54:55;;;;;;;17.13;11.60;;;;;;;;;;5000790;28;20466;-82
2021/08/23 05:57:22;;;;;;;15.60;11.52;;;;;;;;;;5033653;28;20116;-82
2021/08/23 05:59:47;;;;;;;17.45;11.43;;;;;;;;;;5033753;28;20017;-82
2021/08/23 06:02:13;;;;;;;16.50;11.57;;;;;;;;;;5033630;28;20025;-82
2021/08/23 06:04:38;;;;;;;18.20;11.68;;;;;;;;;;5017045;28;20469;-82
2021/08/23 06:07:06;;;;;;;16.80;12.07;;;;;;;;;;5033560;28;20072;-82
2021/08/23 06:09:33;;;;;;;16.15;11.43;;;;;;;;;;5033399;28;20079;-82
2021/08/23 06:11:58;;;;;;;15.32;11.43;;;;;;;;;;5033405;28;20112;-83
2021/08/23 06:14:23;;;;;;;14.30;11.32;;;;;;;;;;5016903;28;20465;-83
2021/08/23 06:16:49;;;;;;;16.60;12.90;;;;;;;;;;5016504;28;20103;-83
2021/08/23 06:19:14;;;;;;;19.38;12.43;;;;;;;;;;5016870;28;20029;-82
2021/08/23 06:21:40;;;;;;;16.20;12.10;;;;;;;;;;5017040;28;20029;-82
2021/08/23 06:24:05;;;;;;;18.08;12.80;;;;;;;;;;5033102;28;20396;-82
2021/08/23 06:26:31;;;;;;;17.92;12.25;;;;;;;;;;5033012;28;20490;-82
2021/08/23 06:28:56;;;;;;;15.73;11.98;;;;;;;;;;5033200;28;20052;-82
2021/08/23 06:31:23;;;;;;;19.83;12.75;;;;;;;;;;5033176;28;20034;-82
2021/08/23 06:33:49;;;;;;;21.13;12.93;;;;;;;;;;5023259;28;20160;-82
2021/08/23 06:36:15;;;;;;;18.65;13.05;;;;;;;;;;5032894;28;20504;-82
2021/08/23 06:38:40;;;;;;;17.90;13.95;;;;;;;;;;5016507;28;20036;-83
2021/08/23 06:41:05;;;;;;;25.13;13.38;;;;;;;;;;5016254;28;20029;-82
2021/08/23 06:43:31;;;;;;;18.02;12.82;;;;;;;;;;5032810;28;20075;-82
2021/08/23 06:45:56;;;;;;;18.02;12.73;;;;;;;;;;5033034;28;20080;-82
2021/08/23 06:48:21;;;;;;;18.60;11.90;;;;;;;;;;4999460;28;20032;-82
2021/08/23 06:50:47;;;;;;;19.15;12.65;;;;;;;;;;5016239;28;20035;-82
2021/08/23 06:53:12;;;;;;;18.00;12.50;;;;;;;;;;5032838;28;20558;-82
2021/08/23 06:55:38;;;;;;;15.35;11.55;;;;;;;;;;5034077;28;20032;-82
2021/08/23 06:58:03;;;;;;;16.98;11.90;;;;;;;;;;5032537;28;20029;-82
2021/08/23 07:00:29;;;;;;;18.05;12.52;;;;;;;;;;5032840;28;20022;-82
2021/08/23 07:02:54;;;;;;;18.17;11.98;;;;;;;;;;5033840;28;20029;-83
2021/08/23 07:05:21;;;;;;;15.85;11.85;;;;;;;;;;5032863;28;20064;-82
2021/08/23 07:07:47;;;;;;;19.23;11.48;;;;;;;;;;5032634;28;20033;-83
2021/08/23 07:10:13;;;;;;;15.00;10.88;;;;;;;;;;5032264;28;20025;-82
2021/08/23 07:12:39;;;;;;;16.35;11.45;;;;;;;;;;5033608;28;20029;-82
2021/08/23 07:15:05;;;;;;;16.15;11.05;;;;;;;;;;5032124;28;20040;-82
2021/08/23 07:17:31;;;;;;;15.40;11.25;;;;;;;;;;5032011;28;20049;-82
2021/08/23 07:19:56;;;;;;;15.85;10.45;;;;;;;;;;5033881;28;20033;-82
2021/08/23 07:22:23;;;;;;;17.92;10.25;;;;;;;;;;5032052;28;20029;-82
2021/08/23 07:24:48;;;;;;;12.07;9.55;;;;;;;;;;5033000;28;20381;-82
2021/08/23 07:27:14;;;;;;;12.98;9.73;;;;;;;;;;5012690;28;20030;-82
2021/08/23 07:29:40;;;;;;;15.65;9.65;;;;;;;;;;5023113;28;20075;-82
2021/08/23 07:32:06;;;;;;;13.52;9.23;;;;;;;;;;5033258;28;20079;-82
2021/08/23 07:34:32;;;;;;;12.63;8.68;;;;;;;;;;5032284;28;20022;-82
2021/08/23 07:36:57;;;;;;;12.25;7.88;;;;;;;;;;5016142;28;20035;-82
2021/08/23 07:39:22;;;;;;;12.32;7.60;;;;;;;;;;4997155;28;20116;-82
2021/08/23 07:41:48;;;;;;;12.25;7.53;;;;;;;;;;5000136;28;20029;-82
2021/08/23 07:44:14;;;;;;;9.20;6.65;;;;;;;;;;5032867;28;20421;-82
2021/08/23 07:46:39;;;;;;;12.32;7.40;;;;;;;;;;4999617;28;20018;-82
2021/08/23 07:49:05;;;;;;;10.90;6.32;;;;;;;;;;5016273;28;20033;-82
2021/08/23 07:51:30;;;;;;;10.50;6.78;;;;;;;;;;5033296;28;20088;-82
2021/08/23 07:53:56;;;;;;;9.60;6.43;;;;;;;;;;5015706;28;20057;-82
2021/08/23 07:56:21;;;;;;;10.88;6.15;;;;;;;;;;5032411;28;20037;-82
2021/08/23 07:58:47;;;;;;;9.25;6.47;;;;;;;;;;5032125;28;20022;-82
2021/08/23 08:01:12;;;;;;;10.55;6.53;;;;;;;;;;5032118;28;20076;-82
2021/08/23 08:03:38;;;;;;;11.73;6.35;;;;;;;;;;5013657;28;20049;-82
2021/08/23 08:06:04;;;;;;;9.43;6.45;;;;;;;;;;5013563;28;20039;-82
2021/08/23 08:08:29;;;;;;;11.65;7.28;;;;;;;;;;5014711;28;20135;-82
2021/08/23 08:10:56;;;;;;;12.75;7.10;;;;;;;;;;5042017;28;20079;-82
2021/08/23 08:13:22;;;;;;;10.80;6.97;;;;;;;;;;5032017;28;20072;-82
2021/08/23 08:15:48;;;;;;;9.63;6.97;;;;;;;;;;5015884;28;20029;-82
2021/08/23 08:18:13;;;;;;;11.05;6.70;;;;;;;;;;5031998;28;20060;-82
2021/08/23 08:20:39;;;;;;;10.70;6.85;;;;;;;;;;5032123;28;20083;-82
2021/08/23 08:23:04;;;;;;;12.02;6.97;;;;;;;;;;4999206;28;20037;-82
2021/08/23 08:25:30;;;;;;;10.80;7.13;;;;;;;;;;5015308;28;20473;-83
2021/08/23 08:27:55;;;;;;;14.10;7.90;;;;;;;;;;5032722;28;20155;-82
2021/08/23 08:30:21;;;;;;;11.18;6.85;;;;;;;;;;4995634;28;20466;-82
2021/08/23 08:32:47;;;;;;;11.35;7.35;;;;;;;;;;5009971;28;20038;-82
2021/08/23 08:35:12;;;;;;;12.60;7.60;;;;;;;;;;5048277;28;20025;-82
2021/08/23 08:37:39;;;;;;;10.63;7.57;;;;;;;;;;5018651;28;20029;-82
2021/08/23 08:40:05;;;;;;;13.20;8.20;;;;;;;;;;5037789;28;20118;-82
2021/08/23 08:42:30;;;;;;;12.60;7.78;;;;;;;;;;5019581;28;20083;-82
2021/08/23 08:44:56;;;;;;;13.50;8.57;;;;;;;;;;5035825;28;20485;-82
2021/08/23 08:47:21;;;;;;;14.00;7.85;;;;;;;;;;5019835;28;20030;-82
2021/08/23 08:49:47;;;;;;;14.27;8.18;;;;;;;;;;5035731;28;20083;-82
2021/08/23 08:52:14;;;;;;;11.65;7.85;;;;;;;;;;5003370;28;20037;-82
2021/08/23 08:54:40;;;;;;;9.70;7.20;;;;;;;;;;5003418;28;20116;-82
2021/08/23 08:57:06;;;;;;;11.55;7.80;;;;;;;;;;5032988;28;20032;-82
2021/08/23 08:59:35;;;;;;;10.35;7.60;;;;;;;;;;5032139;28;20108;-82
2021/08/23 09:02:01;;;;;;;14.10;7.72;;;;;;;;;;5016910;28;20470;-82
2021/08/23 09:04:32;;;;;;;9.95;7.22;;;;;;;;;;5019157;28;20033;-82
2021/08/23 09:06:58;;;;;;;11.55;6.60;;;;;;;;;;5033944;28;20021;-82
2021/08/23 09:09:25;;;;;;;9.65;5.65;;;;;;;;;;5035439;28;20057;-82
2021/08/23 09:12:02;;;;;;;10.20;5.85;;;;;;;;;;5031647;28;20359;-82
2021/08/23 09:14:28;;;;;;;10.90;6.72;;;;;;;;;;5028956;28;20031;-82
2021/08/23 09:17:01;;;;;;;10.20;6.55;;;;;;;;;;5034763;28;20055;-82
2021/08/23 09:19:28;;;;;;;9.10;6.50;;;;;;;;;;5034787;28;20028;-82
2021/08/23 09:22:03;;;;;;;9.05;6.22;;;;;;;;;;5034755;28;20095;-82
2021/08/23 09:24:30;;;;;;;10.48;6.65;;;;;;;;;;5035589;28;20489;-82
2021/08/23 09:27:10;;;;;;;10.02;5.85;;;;;;;;;;5035548;28;20047;-82
2021/08/23 09:29:55;;;;;;;9.25;6.07;;;;;;;;;;5032110;28;20089;-82
2021/08/23 09:32:22;;;;;;;8.07;5.57;;;;;;;;;;5031470;28;20104;-82
2021/08/23 09:34:47;;;;;;;8.82;5.65;;;;;;;;;;5035012;28;20036;-82
2021/08/23 09:37:28;;;;;;;15.82;6.60;;;;;;;;;;5034620;28;20033;-82
2021/08/23 09:39:54;;;;;;;9.93;6.28;;;;;;;;;;5034370;28;20025;-82
2021/08/23 09:42:28;;;;;;;8.20;5.53;;;;;;;;;;5035461;28;20036;-82
2021/08/23 09:44:53;;;;;;;10.85;5.45;;;;;;;;;;5017794;28;20109;-82
2021/08/23 09:47:27;;;;;;;10.15;5.70;;;;;;;;;;5017919;28;20053;-82
2021/08/23 09:49:52;;;;;;;8.23;5.10;;;;;;;;;;5033457;28;20064;-82
2021/08/23 09:52:29;;;;;;;9.05;4.80;;;;;;;;;;5019671;28;20464;-82
2021/08/23 09:55:09;;;;;;;8.77;4.53;;;;;;;;;;5034981;28;20032;-82
2021/08/23 09:57:36;;;;;;;6.97;4.63;;;;;;;;;;5037109;28;20489;-82
2021/08/23 10:00:05;;;;;;;8.35;4.70;;;;;;;;;;5035791;28;20036;-82
2021/08/23 10:02:31;;;;;;;10.50;5.60;;;;;;;;;;5016248;28;20390;-82
2021/08/23 10:04:59;;;;;;;14.73;6.10;;;;;;;;;;5029210;28;20120;-80
2021/08/23 10:07:28;;;;;;;6.97;4.90;;;;;;;;;;5034928;28;20037;-80
2021/08/23 10:09:57;;;;;;;8.77;5.20;;;;;;;;;;5018448;28;20358;-80
2021/08/23 10:12:23;;;;;;;6.97;4.57;;;;;;;;;;5034281;28;20017;-80
2021/08/23 10:14:48;;;;;;;7.95;4.60;;;;;;;;;;5002293;28;20021;-80
2021/08/23 10:17:14;;;;;;;9.23;4.65;;;;;;;;;;5015562;28;20153;-80
2021/08/23 10:19:39;;;;;;;9.13;4.38;;;;;;;;;;5014235;28;20108;-79
2021/08/23 10:22:06;;;;;;;6.25;4.30;;;;;;;;;;5029397;28;20034;-79
2021/08/23 10:24:31;;;;;;;7.45;4.30;;;;;;;;;;5015177;28;20030;-79
2021/08/23 10:26:58;;;;;;;5.93;3.75;;;;;;;;;;5032182;28;20447;-79
2021/08/23 10:29:24;;;;;;;6.60;3.85;;;;;;;;;;5035983;28;20526;-79
2021/08/23 10:31:50;;;;;;;8.27;4.53;;;;;;;;;;5033960;28;20077;-79
2021/08/23 10:34:17;;;;;;;9.82;4.10;;;;;;;;;;5033921;28;20021;-79
2021/08/23 10:36:45;;;;;;;5.93;3.65;;;;;;;;;;5015292;28;20026;-79
2021/08/23 10:39:21;;;;;;;6.93;4.28;;;;;;;;;;5014355;28;20616;-79
2021/08/23 10:41:47;;;;;;;8.00;4.30;;;;;;;;;;5034739;28;20029;-79
2021/08/23 10:44:24;;;;;;;7.78;4.13;;;;;;;;;;5017460;28;20029;-79
2021/08/23 10:46:49;;;;;;;5.82;3.45;;;;;;;;;;5016915;28;20037;-79
2021/08/23 10:49:16;;;;;;;6.05;3.60;;;;;;;;;;5034278;28;20055;-79
2021/08/23 10:51:44;;;;;;;7.22;3.72;;;;;;;;;;5034173;28;20063;-80
2021/08/23 10:54:21;;;;;;;6.65;3.58;;;;;;;;;;5034845;28;20477;-80
2021/08/23 10:56:51;;;;;;;7.32;4.00;;;;;;;;;;5032947;28;20452;-80
2021/08/23 10:59:19;;;;;;;6.10;4.18;;;;;;;;;;5016245;28;20017;-80
2021/08/23 11:01:57;;;;;;;6.00;4.03;;;;;;;;;;5013746;28;20080;-80
2021/08/23 11:04:33;;;;;;;6.13;4.40;;;;;;;;;;5008198;28;20493;-80
2021/08/23 11:07:01;;;;;;;7.32;4.95;;;;;;;;;;5035020;28;20465;-80
2021/08/23 11:09:30;;;;;;;7.47;4.20;;;;;;;;;;5034122;28;20053;-80
2021/08/23 11:12:09;;;;;;;7.55;5.15;;;;;;;;;;5032584;28;20492;-80
2021/08/23 11:14:49;;;;;;;8.45;5.05;;;;;;;;;;5029400;28;20029;-80
2021/08/23 11:17:32;;;;;;;8.27;4.78;;;;;;;;;;5034022;28;20057;-80
2021/08/23 11:20:00;;;;;;;9.85;4.93;;;;;;;;;;5032191;28;20022;-80
2021/08/23 11:22:26;;;;;;;8.07;4.70;;;;;;;;;;5032745;28;20036;-80
2021/08/23 11:24:52;;;;;;;7.28;5.32;;;;;;;;;;5032625;28;20029;-80
2021/08/23 11:27:17;;;;;;;9.65;5.03;;;;;;;;;;5016161;28;20389;-80
2021/08/23 11:29:56;;;;;;;9.60;4.97;;;;;;;;;;5013839;28;20029;-80
2021/08/23 11:32:27;;;;;;;6.00;4.32;;;;;;;;;;5033121;28;20026;-80
2021/08/23 11:34:54;;;;;;;9.77;4.50;;;;;;;;;;5033705;28;20025;-80
2021/08/23 11:37:24;;;;;;;6.57;3.95;;;;;;;;;;5012845;28;20474;-80
2021/08/23 11:40:01;;;;;;;7.20;4.30;;;;;;;;;;5011675;28;20036;-80
2021/08/23 11:42:26;;;;;;;6.15;4.13;;;;;;;;;;5033736;28;20017;-80
2021/08/23 11:44:53;;;;;;;7.70;4.43;;;;;;;;;;5016158;28;20044;-79
2021/08/23 11:47:31;;;;;;;6.20;4.32;;;;;;;;;;5034448;28;20033;-79
2021/08/23 11:49:57;;;;;;;7.07;4.40;;;;;;;;;;5032626;28;20504;-80
2021/08/23 11:52:23;;;;;;;8.55;4.40;;;;;;;;;;5033666;28;20025;-80
2021/08/23 11:54:51;;;;;;;8.63;4.30;;;;;;;;;;5015868;28;20551;-80
2021/08/23 11:57:22;;;;;;;6.03;4.15;;;;;;;;;;5032063;28;20511;-80
2021/08/23 12:00:14;;;;;;;11.25;4.43;;;;;;;;;;5029064;28;20018;-80
2021/08/23 12:02:40;;;;;;;8.40;3.97;;;;;;;;;;5021942;28;20055;-80
2021/08/23 12:05:10;;;;;;;6.90;4.47;;;;;;;;;;5034096;28;20476;-80
2021/08/23 12:07:49;;;;;;;8.90;4.10;;;;;;;;;;5034811;28;20029;-81
2021/08/23 12:10:49;;;;;;;6.65;4.35;;;;;;;;;;5040360;28;20052;-80
2021/08/23 12:13:17;;;;;;;10.20;4.47;;;;;;;;;;5027016;28;20025;-80
2021/08/23 12:16:00;;;;;;;9.88;4.28;;;;;;;;;;5037793;28;20075;-80
2021/08/23 12:18:30;;;;;;;;;;;;;;;;;;5036590;28;20042;-80
2021/08/23 12:21:05;;;;;;;8.80;3.83;;;;;;;;;;5037232;28;19913;-80
2021/08/23 12:23:45;;;;;;;5.88;3.72;;;;;;;;;;5037368;28;20017;-80
2021/08/23 12:26:13;;;;;;;5.82;3.67;;;;;;;;;;5036163;28;20032;-80
2021/08/23 12:28:50;;;;;;;6.15;3.33;;;;;;;;;;5035993;28;20045;-80
2021/08/23 12:31:16;;;;;;;6.97;3.88;;;;;;;;;;5035707;28;20044;-80
2021/08/23 12:33:42;;;;;;;6.45;4.10;;;;;;;;;;5036927;28;20055;-80
2021/08/23 12:36:08;;;;;;;5.78;3.70;;;;;;;;;;5019233;28;20037;-80
2021/08/23 12:38:33;;;;;;;5.50;3.00;;;;;;;;;;5036259;28;20025;-80
2021/08/23 12:40:59;;;;;;;5.72;2.60;;;;;;;;;;4999428;28;20167;-80
2021/08/23 12:43:24;;;;;;;6.93;3.08;;;;;;;;;;5024129;28;20041;-80
2021/08/23 12:45:49;;;;;;;5.78;3.03;;;;;;;;;;4999704;28;20080;-80
2021/08/23 12:48:15;;;;;;;4.90;3.10;;;;;;;;;;5015997;28;20057;-80
2021/08/23 12:50:41;;;;;;;7.13;3.50;;;;;;;;;;5016565;28;20021;-80
2021/08/23 12:53:06;;;;;;;6.63;3.70;;;;;;;;;;5015996;28;20469;-80
2021/08/23 12:55:32;;;;;;;8.40;3.92;;;;;;;;;;5035369;28;20485;-80
2021/08/23 12:57:57;;;;;;;8.27;3.95;;;;;;;;;;5035656;28;20044;-80
2021/08/23 13:00:22;;;;;;;7.55;3.33;;;;;;;;;;4999773;28;20085;-80
2021/08/23 13:02:48;;;;;;;8.40;3.42;;;;;;;;;;5039790;28;20052;-80
2021/08/23 13:05:13;;;;;;;6.15;3.42;;;;;;;;;;5015648;28;20026;-80
2021/08/23 13:07:39;;;;;;;6.80;3.40;;;;;;;;;;5022992;28;20358;-80
2021/08/23 13:10:06;;;;;;;4.45;2.65;;;;;;;;;;5002807;28;20033;-80
2021/08/23 13:12:32;;;;;;;6.75;3.10;;;;;;;;;;5034735;28;20048;-80
2021/08/23 13:14:58;;;;;;;4.95;2.80;;;;;;;;;;5039788;28;20025;-80
2021/08/23 13:17:23;;;;;;;5.03;2.90;;;;;;;;;;5022283;28;20049;-80
2021/08/23 13:19:49;;;;;;;7.97;2.90;;;;;;;;;;5038591;28;20039;-80
2021/08/23 13:22:14;;;;;;;5.95;3.08;;;;;;;;;;5038046;28;20116;-80
2021/08/23 13:24:41;;;;;;;6.50;3.00;;;;;;;;;;5022063;28;20025;-80
2021/08/23 13:27:07;;;;;;;6.15;2.92;;;;;;;;;;5038276;28;20025;-80
2021/08/23 13:29:32;;;;;;;4.40;2.75;;;;;;;;;;5018657;28;20036;-80
2021/08/23 13:31:58;;;;;;;5.40;3.20;;;;;;;;;;5018926;28;20038;-80
2021/08/23 13:34:23;;;;;;;5.03;2.75;;;;;;;;;;5018689;28;20025;-80
2021/08/23 13:36:49;;;;;;;5.72;2.83;;;;;;;;;;5037571;28;20405;-80
2021/08/23 13:39:14;;;;;;;6.20;3.13;;;;;;;;;;5017969;28;20026;-80
2021/08/23 13:41:40;;;;;;;7.03;3.42;;;;;;;;;;5015010;28;20036;-80
2021/08/23 13:44:05;;;;;;;5.47;3.08;;;;;;;;;;5034030;28;20421;-80
2021/08/23 13:46:31;;;;;;;5.93;2.92;;;;;;;;;;5002217;28;20477;-80
2021/08/23 13:48:58;;;;;;;4.13;2.45;;;;;;;;;;5001819;28;20033;-80
2021/08/23 13:51:24;;;;;;;4.85;2.40;;;;;;;;;;5031368;28;20421;-80
2021/08/23 13:53:49;;;;;;;4.18;2.50;;;;;;;;;;5034236;28;20059;-80
2021/08/23 13:56:15;;;;;;;4.78;2.40;;;;;;;;;;5014530;28;20501;-80
2021/08/23 13:58:40;;;;;;;4.75;2.38;;;;;;;;;;5029070;28;20068;-80
2021/08/23 14:01:06;;;;;;;5.00;2.80;;;;;;;;;;5001664;28;20025;-80
2021/08/23 14:03:31;;;;;;;6.43;2.72;;;;;;;;;;5017715;28;20034;-80
2021/08/23 14:05:57;;;;;;;5.35;2.92;;;;;;;;;;5017575;28;20400;-80
2021/08/23 14:08:22;;;;;;;5.28;2.78;;;;;;;;;;5033917;28;20025;-80
2021/08/23 14:10:48;;;;;;;6.10;3.05;;;;;;;;;;5035609;28;20042;-80
2021/08/23 14:13:13;;;;;;;7.32;3.55;;;;;;;;;;5001337;28;20033;-80
2021/08/23 14:15:39;;;;;;;5.75;3.58;;;;;;;;;;5017464;28;20392;-80
2021/08/23 14:18:05;;;;;;;5.78;3.28;;;;;;;;;;5033495;28;20140;-80
2021/08/23 14:20:30;;;;;;;5.75;3.17;;;;;;;;;;5032137;28;20033;-80
2021/08/23 14:22:55;;;;;;;5.70;2.85;;;;;;;;;;5035149;28;20163;-80
2021/08/23 14:25:21;;;;;;;6.03;3.28;;;;;;;;;;5034136;28;20025;-80
2021/08/23 14:27:46;;;;;;;4.38;3.00;;;;;;;;;;5000790;28;20091;-80